Wood Lake, North Dakota
Current Conditions -  °F | °C
As of 6:15 AM on Friday 28 Nov 2014 (Local Time) from KDVL Reporting Station
Overcast Overcast  
Wind Chill: -6°   Ceiling: 3400
Heat Index:   Visibility: 10mi
Dew Point: -2°   Wind: 12mph
Humidity: 62%   Direction: 110°ESE
Pressure: 29.88"   Gusts: NA
Location:  47.9248°N, 98.8159°W
Report Text: KDVL 281215Z AUTO 11010KT 10SM BKN034 OVC049 M13/M19 A2988 RMK AO1
Loading
Personal Weather Stations






























Interactive Weather Map New forecast layout! Learn more

10-Day Weather Forecast

Advertisements
Track Severe Weather on mobile